Mendenhall, Pennsylvania
Current Conditions -  °F | °C
As of 10:51 PM on Friday 19 Dec 2014 (Local Time) from KILG Reporting Station
Few Clouds Few Clouds  
Wind Chill: 26°   Ceiling: Unl
Heat Index: 31°   Visibility: 10mi
Dew Point: 21°   Wind: 5mph
Humidity: 67%   Direction: 300°WNW
Pressure: 30.22"   Gusts: NA
Location:  39.85°N, 75.64°W
Report Text: KILG 200351Z 30004KT 10SM FEW037 M01/M06 A3022 RMK AO2 SLP235 T10061061
Loading
Personal Weather Stations






























Interactive Weather Map New forecast layout! Learn more

10-Day Weather Forecast

Advertisements
Track Severe Weather on mobile